createdAt,value
2023-01-22T00:01:35.527Z,-40.23
2023-01-22T00:04:04.905Z,-40.25
2023-01-22T00:06:33.881Z,-40.22
2023-01-22T00:09:04.417Z,-40.15
2023-01-22T00:11:33.227Z,-40.02
2023-01-22T00:14:02.114Z,-39.90
2023-01-22T00:16:31.188Z,-39.72
2023-01-22T00:19:00.064Z,-39.63
2023-01-22T00:21:29.084Z,-39.51
2023-01-22T00:23:57.939Z,-39.48
2023-01-22T00:26:27.105Z,-39.44
2023-01-22T00:28:56.089Z,-39.46
2023-01-22T00:31:25.044Z,-39.38
2023-01-22T00:33:53.946Z,-39.37
2023-01-22T00:36:23.381Z,-39.33
2023-01-22T00:38:52.462Z,-39.34
2023-01-22T00:41:21.575Z,-39.47
2023-01-22T00:43:52.784Z,-39.53
2023-01-22T00:46:22.016Z,-39.57
2023-01-22T00:48:51.742Z,-39.57
2023-01-22T00:51:20.881Z,-39.67
2023-01-22T00:53:49.813Z,-39.69
2023-01-22T00:56:18.757Z,-39.75
2023-01-22T00:58:47.826Z,-39.81
2023-01-22T01:01:18.170Z,-39.78
2023-01-22T01:03:47.466Z,-39.74
2023-01-22T01:06:20.483Z,-39.68
2023-01-22T01:08:50.844Z,-39.64
2023-01-22T01:11:25.767Z,-39.63
2023-01-22T01:13:55.104Z,-39.59
2023-01-22T01:16:32.526Z,-39.64
2023-01-22T01:19:07.249Z,-39.57
2023-01-22T01:21:36.097Z,-39.67
2023-01-22T01:24:05.901Z,-39.66
2023-01-22T01:26:35.947Z,-39.87
2023-01-22T01:29:05.779Z,-39.81
2023-01-22T01:31:34.618Z,-39.92
2023-01-22T01:34:04.912Z,-39.92
2023-01-22T01:36:48.282Z,-39.88
2023-01-22T01:39:18.633Z,-39.82
2023-01-22T01:41:48.958Z,-39.76
2023-01-22T01:44:23.537Z,-39.77
2023-01-22T01:47:00.969Z,-39.78
2023-01-22T01:49:34.459Z,-39.73
2023-01-22T01:52:11.480Z,-39.71
2023-01-22T01:54:43.435Z,-39.70
2023-01-22T01:57:36.066Z,-39.72
2023-01-22T02:00:13.096Z,-39.65
2023-01-22T02:02:42.348Z,-39.60
2023-01-22T02:05:11.838Z,-39.55
2023-01-22T02:07:40.833Z,-39.51
2023-01-22T02:10:10.578Z,-39.48
2023-01-22T02:12:39.616Z,-39.41
2023-01-22T02:15:10.051Z,-39.38
2023-01-22T02:17:38.871Z,-39.38
2023-01-22T02:20:08.439Z,-39.36
2023-01-22T02:22:40.309Z,-39.27
2023-01-22T02:25:10.118Z,-39.16
2023-01-22T02:27:39.592Z,-39.12
2023-01-22T02:30:09.273Z,-39.14
2023-01-22T02:32:38.158Z,-39.05
2023-01-22T02:35:07.723Z,-38.93
2023-01-22T02:37:39.419Z,-38.87
2023-01-22T02:40:08.899Z,-38.79
2023-01-22T02:42:37.884Z,-38.78
2023-01-22T02:45:07.730Z,-38.66
2023-01-22T02:47:37.685Z,-38.64
2023-01-22T02:50:08.124Z,-38.62
2023-01-22T02:52:37.273Z,-38.64
2023-01-22T02:55:06.670Z,-38.60
2023-01-22T02:57:35.602Z,-38.54
2023-01-22T03:00:05.915Z,-38.56
2023-01-22T03:02:35.302Z,-38.46
2023-01-22T03:05:04.648Z,-38.40
2023-01-22T03:07:45.685Z,-38.32
2023-01-22T03:10:18.495Z,-38.29
2023-01-22T03:13:07.492Z,-38.28
2023-01-22T03:15:58.182Z,-38.28
2023-01-22T03:18:45.539Z,-38.21
2023-01-22T03:21:16.317Z,-38.16
2023-01-22T03:23:54.549Z,-38.09
2023-01-22T03:26:25.333Z,-38.05
2023-01-22T03:28:54.224Z,-38.04
2023-01-22T03:31:23.127Z,-38.02
2023-01-22T03:33:53.143Z,-37.89
2023-01-22T03:36:22.402Z,-37.83
2023-01-22T03:38:53.691Z,-37.79
2023-01-22T03:41:25.867Z,-37.73
2023-01-22T03:43:55.243Z,-37.65
2023-01-22T03:46:30.011Z,-37.59
2023-01-22T03:49:00.283Z,-37.52
2023-01-22T03:51:29.989Z,-37.43
2023-01-22T03:54:00.277Z,-37.39
2023-01-22T03:56:31.672Z,-37.40
2023-01-22T03:59:07.416Z,-37.36
2023-01-22T04:01:37.845Z,-37.37
2023-01-22T04:04:07.044Z,-37.36
2023-01-22T04:06:36.283Z,-37.33
2023-01-22T04:09:05.188Z,-37.31
2023-01-22T04:11:39.164Z,-37.29
2023-01-22T04:14:10.266Z,-37.26
2023-01-22T04:16:44.045Z,-37.25
2023-01-22T04:19:32.201Z,-37.21
2023-01-22T04:22:19.369Z,-37.22
2023-01-22T04:24:50.952Z,-37.14
2023-01-22T04:27:19.902Z,-37.13
2023-01-22T04:29:52.103Z,-37.15
2023-01-22T04:32:22.216Z,-37.12
2023-01-22T04:35:05.132Z,-37.05
2023-01-22T04:37:40.923Z,-37.08
2023-01-22T04:40:10.929Z,-37.00
2023-01-22T04:42:40.044Z,-36.94
2023-01-22T04:45:09.944Z,-36.95
2023-01-22T04:47:50.711Z,-36.87
2023-01-22T04:50:27.527Z,-36.85
2023-01-22T04:52:57.687Z,-36.84
2023-01-22T04:55:27.356Z,-36.76
2023-01-22T04:58:05.806Z,-36.75
2023-01-22T05:00:36.796Z,-36.71
2023-01-22T05:03:06.304Z,-36.66
2023-01-22T05:05:35.558Z,-36.70
2023-01-22T05:08:05.024Z,-36.56
2023-01-22T05:10:38.633Z,-36.54
2023-01-22T05:13:10.527Z,-36.44
2023-01-22T05:15:41.010Z,-36.26
2023-01-22T05:18:12.732Z,-36.23
2023-01-22T05:20:48.871Z,-36.26
2023-01-22T05:23:19.668Z,-36.03
2023-01-22T05:25:50.690Z,-35.91
2023-01-22T05:28:29.480Z,-35.97
2023-01-22T05:31:19.010Z,-35.99
2023-01-22T05:34:09.114Z,-35.86
2023-01-22T05:36:40.514Z,-36.02
2023-01-22T05:39:24.049Z,-35.69
2023-01-22T05:41:55.685Z,-35.66
2023-01-22T05:44:26.749Z,-35.67
2023-01-22T05:46:57.220Z,-35.62
2023-01-22T05:49:29.015Z,-35.55
2023-01-22T05:52:00.581Z,-35.50
2023-01-22T05:54:29.721Z,-35.57
2023-01-22T05:57:01.357Z,-35.63
2023-01-22T05:59:31.117Z,-35.52
2023-01-22T06:02:05.276Z,-35.45
2023-01-22T06:04:37.504Z,-35.43
2023-01-22T06:07:16.327Z,-35.48
2023-01-22T06:09:45.281Z,-35.44
2023-01-22T06:12:16.103Z,-35.35
2023-01-22T06:14:45.079Z,-35.25
2023-01-22T06:17:14.961Z,-35.25
2023-01-22T06:19:49.850Z,-35.15
2023-01-22T06:22:20.686Z,-35.19
2023-01-22T06:24:54.134Z,-35.16
2023-01-22T06:27:25.801Z,-35.14
2023-01-22T06:29:59.616Z,-35.08
2023-01-22T06:32:28.763Z,-35.00
2023-01-22T06:34:57.698Z,-34.89
2023-01-22T06:37:26.531Z,-34.81
2023-01-22T06:39:55.339Z,-34.78
2023-01-22T06:42:36.944Z,-34.77
2023-01-22T06:45:06.894Z,-34.77
2023-01-22T06:47:36.890Z,-34.75
2023-01-22T06:50:06.312Z,-34.70
2023-01-22T06:52:36.433Z,-34.61
2023-01-22T06:55:05.908Z,-34.52
2023-01-22T06:57:34.912Z,-34.27
2023-01-22T07:00:05.521Z,-34.15
2023-01-22T07:02:34.918Z,-34.10
2023-01-22T07:05:04.528Z,-33.94
2023-01-22T07:07:33.483Z,-33.79
2023-01-22T07:10:02.512Z,-33.62
2023-01-22T07:12:31.790Z,-33.39
2023-01-22T07:15:00.677Z,-33.29
2023-01-22T07:17:31.588Z,-33.23
2023-01-22T07:20:00.732Z,-33.30
2023-01-22T07:22:32.138Z,-33.45
2023-01-22T07:25:02.020Z,-33.58
2023-01-22T07:27:33.158Z,-33.52
2023-01-22T07:30:03.652Z,-33.50
2023-01-22T07:32:33.221Z,-33.61
2023-01-22T07:35:02.284Z,-33.58
2023-01-22T07:37:31.783Z,-33.65
2023-01-22T07:40:00.709Z,-33.64
2023-01-22T07:42:29.636Z,-33.64
2023-01-22T07:44:58.597Z,-33.49
2023-01-22T07:47:27.507Z,-33.50
2023-01-22T07:49:56.335Z,-33.51
2023-01-22T07:52:25.420Z,-33.49
2023-01-22T07:54:57.127Z,-33.53
2023-01-22T07:57:25.974Z,-33.57
2023-01-22T07:59:54.819Z,-33.55
2023-01-22T08:02:24.409Z,-33.48
2023-01-22T08:04:54.088Z,-33.41
2023-01-22T08:07:24.294Z,-33.29
2023-01-22T08:09:53.501Z,-33.22
2023-01-22T08:12:22.308Z,-33.14
2023-01-22T08:14:51.172Z,-33.11
2023-01-22T08:17:20.061Z,-32.53
2023-01-22T08:19:49.250Z,-31.79
2023-01-22T08:22:18.305Z,-31.46
2023-01-22T08:24:47.214Z,-31.06
2023-01-22T08:27:16.818Z,-30.93
2023-01-22T08:29:45.744Z,-30.90
2023-01-22T08:32:14.851Z,-30.79
2023-01-22T08:34:43.809Z,-30.53
2023-01-22T08:37:12.728Z,-30.32
2023-01-22T08:39:41.781Z,-30.06
2023-01-22T08:42:12.569Z,-29.72
2023-01-22T08:44:41.407Z,-29.31
2023-01-22T08:47:12.143Z,-28.85
2023-01-22T08:49:41.263Z,-28.76
2023-01-22T08:52:10.281Z,-29.16
2023-01-22T08:54:39.328Z,-29.86
2023-01-22T08:57:08.226Z,-30.52
2023-01-22T08:59:37.357Z,-31.40
2023-01-22T09:02:08.064Z,-32.22
2023-01-22T09:04:39.048Z,-32.88
2023-01-22T09:07:11.398Z,-33.29
2023-01-22T09:09:40.469Z,-33.71
2023-01-22T09:12:09.738Z,-34.08
2023-01-22T09:14:38.622Z,-34.44
2023-01-22T09:17:07.573Z,-34.64
2023-01-22T09:19:36.443Z,-34.87
2023-01-22T09:22:07.214Z,-34.91
2023-01-22T09:24:36.359Z,-35.12
2023-01-22T09:27:05.230Z,-35.30
2023-01-22T09:29:34.158Z,-35.40
2023-01-22T09:32:03.115Z,-35.45
2023-01-22T09:34:32.101Z,-35.50
2023-01-22T09:37:06.485Z,-35.59
2023-01-22T09:39:35.564Z,-35.62
2023-01-22T09:42:05.207Z,-35.76
2023-01-22T09:44:42.974Z,-35.77
2023-01-22T09:47:19.403Z,-35.80
2023-01-22T09:49:55.062Z,-35.85
2023-01-22T09:52:30.649Z,-35.91
2023-01-22T09:54:59.587Z,-36.03
2023-01-22T09:57:32.044Z,-36.16
2023-01-22T10:00:01.370Z,-36.26
2023-01-22T10:03:12.505Z,-36.29
2023-01-22T10:05:58.378Z,-36.29
2023-01-22T10:08:34.900Z,-36.31
2023-01-22T10:11:04.261Z,-36.41
2023-01-22T10:13:36.201Z,-36.45
2023-01-22T10:16:07.179Z,-36.43
2023-01-22T10:18:39.280Z,-36.39
2023-01-22T10:21:31.137Z,-36.57
2023-01-22T10:24:01.043Z,-36.66
2023-01-22T10:26:39.061Z,-36.72
2023-01-22T10:29:23.347Z,-36.67
2023-01-22T10:31:58.592Z,-36.65
2023-01-22T10:34:35.162Z,-36.72
2023-01-22T10:37:16.114Z,-36.77
2023-01-22T10:39:48.358Z,-37.01
2023-01-22T10:42:26.411Z,-36.81
2023-01-22T10:45:20.120Z,-36.85
2023-01-22T10:47:48.995Z,-36.95
2023-01-22T10:50:19.207Z,-37.04
2023-01-22T10:52:56.135Z,-37.03
2023-01-22T10:55:29.962Z,-36.98
2023-01-22T10:58:06.466Z,-36.95
2023-01-22T11:00:51.543Z,-36.96
2023-01-22T11:03:34.584Z,-37.00
2023-01-22T11:06:19.727Z,-37.04
2023-01-22T11:08:52.243Z,-37.17
2023-01-22T11:11:27.175Z,-37.09
2023-01-22T11:14:05.250Z,-37.11
2023-01-22T11:16:38.230Z,-37.18
2023-01-22T11:19:32.576Z,-37.28
2023-01-22T11:22:23.152Z,-37.12
2023-01-22T11:24:52.445Z,-37.10
2023-01-22T11:27:39.775Z,-37.04
2023-01-22T11:30:19.106Z,-37.02
2023-01-22T11:33:05.784Z,-36.95
2023-01-22T11:36:09.798Z,-36.92
2023-01-22T11:38:44.809Z,-36.85
2023-01-22T11:41:31.421Z,-36.83
2023-01-22T11:44:28.401Z,-36.81
2023-01-22T11:47:47.708Z,-36.85
2023-01-22T11:50:48.783Z,-36.85
2023-01-22T11:53:32.769Z,-36.84
2023-01-22T11:56:07.946Z,-36.86
2023-01-22T11:58:39.510Z,-36.91
2023-01-22T12:01:38.494Z,-36.89
2023-01-22T12:04:33.564Z,-37.08
2023-01-22T12:07:25.471Z,-37.12
2023-01-22T12:10:31.829Z,-37.07
2023-01-22T12:13:31.247Z,-37.13
2023-01-22T12:16:05.422Z,-37.14
2023-01-22T12:18:52.697Z,-37.20
2023-01-22T12:21:26.864Z,-37.21
2023-01-22T12:24:28.383Z,-37.18
2023-01-22T12:27:18.362Z,-37.20
2023-01-22T12:30:05.979Z,-37.23
2023-01-22T12:32:37.786Z,-37.26
2023-01-22T12:35:15.560Z,-37.38
2023-01-22T12:37:54.577Z,-37.56
2023-01-22T12:41:00.259Z,-37.43
2023-01-22T12:43:56.203Z,-37.46
2023-01-22T12:46:36.690Z,-37.46
2023-01-22T12:49:10.965Z,-37.52
2023-01-22T12:51:39.847Z,-37.50
2023-01-22T12:54:22.508Z,-37.52
2023-01-22T12:56:54.566Z,-37.57
2023-01-22T12:59:39.554Z,-37.63
2023-01-22T13:02:36.550Z,-37.65
2023-01-22T13:05:19.819Z,-37.68
2023-01-22T13:07:50.777Z,-37.67
2023-01-22T13:10:32.851Z,-37.70
2023-01-22T13:13:22.749Z,-37.71
2023-01-22T13:15:55.509Z,-37.74
2023-01-22T13:18:31.536Z,-37.82
2023-01-22T13:21:08.749Z,-37.76
2023-01-22T13:23:46.649Z,-37.76
2023-01-22T13:26:27.837Z,-37.83
2023-01-22T13:29:19.346Z,-37.94
2023-01-22T13:32:01.199Z,-37.81
2023-01-22T13:34:30.939Z,-37.81
2023-01-22T13:36:59.992Z,-37.80
2023-01-22T13:39:32.673Z,-37.87
2023-01-22T13:42:06.553Z,-38.02
2023-01-22T13:44:38.685Z,-38.05
2023-01-22T13:47:07.719Z,-38.10
2023-01-22T13:49:43.877Z,-38.03
2023-01-22T13:52:18.892Z,-37.97
2023-01-22T13:55:01.886Z,-37.97
2023-01-22T13:57:32.048Z,-37.91
2023-01-22T14:00:03.914Z,-37.90
2023-01-22T14:02:37.242Z,-37.94
2023-01-22T14:05:28.222Z,-37.94
2023-01-22T14:08:12.675Z,-37.96
2023-01-22T14:10:43.909Z,-37.94
2023-01-22T14:13:14.460Z,-37.91
2023-01-22T14:15:43.558Z,-37.86
2023-01-22T14:18:15.230Z,-37.87
2023-01-22T14:20:46.301Z,-37.84
2023-01-22T14:23:16.116Z,-37.79
2023-01-22T14:25:51.708Z,-37.84
2023-01-22T14:28:22.921Z,-37.77
2023-01-22T14:30:53.132Z,-37.75
2023-01-22T14:33:31.188Z,-37.87
2023-01-22T14:36:00.516Z,-37.76
2023-01-22T14:38:29.997Z,-37.81
2023-01-22T14:40:58.892Z,-37.75
2023-01-22T14:43:27.779Z,-37.64
2023-01-22T14:45:56.973Z,-37.62
2023-01-22T14:48:26.536Z,-37.62
2023-01-22T14:50:55.479Z,-37.48
2023-01-22T14:53:24.341Z,-37.50
2023-01-22T14:55:53.246Z,-37.51
2023-01-22T14:58:22.176Z,-37.53
2023-01-22T15:00:52.450Z,-37.69
2023-01-22T15:03:21.644Z,-37.77
2023-01-22T15:05:53.900Z,-37.69
2023-01-22T15:08:22.852Z,-37.83
2023-01-22T15:10:51.800Z,-37.98
2023-01-22T15:13:20.690Z,-38.12
2023-01-22T15:15:49.777Z,-38.18
2023-01-22T15:18:18.727Z,-38.25
2023-01-22T15:20:47.807Z,-38.28
2023-01-22T15:23:16.807Z,-38.57
2023-01-22T15:25:45.711Z,-38.38
2023-01-22T15:28:14.788Z,-38.47
2023-01-22T15:30:47.461Z,-38.50
2023-01-22T15:33:16.700Z,-38.56
2023-01-22T15:35:45.615Z,-38.62
2023-01-22T15:38:14.964Z,-38.66
2023-01-22T15:40:44.038Z,-38.73
2023-01-22T15:43:13.002Z,-38.67
2023-01-22T15:45:41.927Z,-38.69
2023-01-22T15:48:11.877Z,-38.65
2023-01-22T15:50:41.340Z,-38.72
2023-01-22T15:53:10.458Z,-38.80
2023-01-22T15:55:39.343Z,-38.88
2023-01-22T15:58:08.627Z,-38.87
2023-01-22T16:00:38.457Z,-39.03
2023-01-22T16:03:07.760Z,-38.97
2023-01-22T16:05:36.636Z,-39.02
2023-01-22T16:08:05.740Z,-39.01
2023-01-22T16:10:34.990Z,-39.03
2023-01-22T16:13:03.823Z,-39.01
2023-01-22T16:15:32.954Z,-39.03
2023-01-22T16:18:01.884Z,-38.98
2023-01-22T16:20:31.041Z,-38.94
2023-01-22T16:22:59.858Z,-38.93
2023-01-22T16:25:29.031Z,-38.89
2023-01-22T16:27:58.084Z,-38.96
2023-01-22T16:30:26.921Z,-38.98
2023-01-22T16:32:56.013Z,-39.01
2023-01-22T16:35:25.239Z,-39.03
2023-01-22T16:37:54.183Z,-38.94
2023-01-22T16:40:22.997Z,-38.95
2023-01-22T16:43:02.173Z,-38.97
2023-01-22T16:45:31.316Z,-39.01
2023-01-22T16:48:00.883Z,-38.92
2023-01-22T16:50:30.004Z,-38.92
2023-01-22T16:52:59.278Z,-38.93
2023-01-22T16:55:28.629Z,-38.93
2023-01-22T16:57:59.632Z,-38.95
2023-01-22T17:00:29.412Z,-39.00
2023-01-22T17:03:00.500Z,-39.04
2023-01-22T17:05:29.633Z,-39.05
2023-01-22T17:07:58.742Z,-39.14
2023-01-22T17:10:28.072Z,-39.03
2023-01-22T17:12:56.916Z,-39.11
2023-01-22T17:15:25.868Z,-39.08
2023-01-22T17:17:54.868Z,-39.04
2023-01-22T17:20:23.790Z,-38.99
2023-01-22T17:22:52.665Z,-39.03
2023-01-22T17:25:22.167Z,-39.03
2023-01-22T17:27:51.052Z,-39.01
2023-01-22T17:30:20.169Z,-39.02
2023-01-22T17:32:49.633Z,-39.05
2023-01-22T17:35:18.844Z,-38.91
2023-01-22T17:37:48.459Z,-38.85
2023-01-22T17:40:17.434Z,-38.85
2023-01-22T17:42:46.236Z,-38.89
2023-01-22T17:45:15.360Z,-38.89
2023-01-22T17:47:45.935Z,-38.94
2023-01-22T17:50:14.881Z,-38.86
2023-01-22T17:52:43.938Z,-38.82
2023-01-22T17:55:13.090Z,-38.82
2023-01-22T17:57:42.124Z,-38.85
2023-01-22T18:00:12.539Z,-38.73
2023-01-22T18:02:41.904Z,-38.82
2023-01-22T18:05:10.809Z,-38.90
2023-01-22T18:07:39.668Z,-38.84
2023-01-22T18:10:09.023Z,-38.83
2023-01-22T18:12:37.861Z,-38.93
2023-01-22T18:15:07.483Z,-38.85
2023-01-22T18:17:36.454Z,-38.94
2023-01-22T18:20:07.099Z,-39.03
2023-01-22T18:22:36.159Z,-38.97
2023-01-22T18:25:05.329Z,-38.97
2023-01-22T18:27:34.205Z,-39.01
2023-01-22T18:30:03.010Z,-39.03
2023-01-22T18:32:32.348Z,-39.05
2023-01-22T18:35:01.426Z,-39.00
2023-01-22T18:37:34.376Z,-39.04
2023-01-22T18:40:03.513Z,-39.07
2023-01-22T18:42:32.456Z,-39.08
2023-01-22T18:45:01.332Z,-39.12
2023-01-22T18:47:34.777Z,-39.17
2023-01-22T18:50:04.099Z,-38.94
2023-01-22T18:52:34.278Z,-38.94
2023-01-22T18:55:03.241Z,-39.24
2023-01-22T18:57:35.016Z,-39.15
2023-01-22T19:00:04.795Z,-39.27
2023-01-22T19:02:34.720Z,-39.11
2023-01-22T19:05:03.699Z,-39.10
2023-01-22T19:07:38.549Z,-39.15
2023-01-22T19:10:09.301Z,-39.18
2023-01-22T19:12:38.079Z,-39.17
2023-01-22T19:15:07.601Z,-39.17
2023-01-22T19:17:36.606Z,-39.13
2023-01-22T19:20:09.998Z,-39.10
2023-01-22T19:22:38.795Z,-39.12
2023-01-22T19:25:08.286Z,-39.22
2023-01-22T19:27:37.686Z,-39.10
2023-01-22T19:30:07.704Z,-39.04
2023-01-22T19:32:38.559Z,-39.07
2023-01-22T19:35:08.189Z,-39.11
2023-01-22T19:37:37.054Z,-39.10
2023-01-22T19:40:07.824Z,-39.12
2023-01-22T19:42:36.724Z,-39.01
2023-01-22T19:45:05.898Z,-39.18
2023-01-22T19:47:35.021Z,-39.12
2023-01-22T19:50:03.975Z,-39.19
2023-01-22T19:52:33.330Z,-39.18
2023-01-22T19:55:02.156Z,-39.14
2023-01-22T19:57:33.936Z,-39.07
2023-01-22T20:00:02.877Z,-39.12
2023-01-22T20:02:38.894Z,-39.21
2023-01-22T20:05:08.386Z,-39.18
2023-01-22T20:07:37.212Z,-39.17
2023-01-22T20:10:06.962Z,-39.16
2023-01-22T20:12:35.841Z,-39.13
2023-01-22T20:15:05.479Z,-39.15
2023-01-22T20:17:34.594Z,-39.05
2023-01-22T20:20:05.740Z,-38.88
2023-01-22T20:22:34.610Z,-38.97
2023-01-22T20:25:04.416Z,-39.02
2023-01-22T20:27:33.947Z,-38.97
2023-01-22T20:30:03.095Z,-39.00
2023-01-22T20:32:32.701Z,-39.05
2023-01-22T20:35:01.709Z,-38.96
2023-01-22T20:37:32.081Z,-39.02
2023-01-22T20:40:01.122Z,-38.95
2023-01-22T20:42:30.218Z,-38.87
2023-01-22T20:44:59.136Z,-38.86
2023-01-22T20:47:28.061Z,-38.89
2023-01-22T20:49:56.896Z,-38.88
2023-01-22T20:52:25.898Z,-38.94
2023-01-22T20:55:01.351Z,-38.92
2023-01-22T20:57:33.241Z,-38.84
2023-01-22T21:00:02.240Z,-38.85
2023-01-22T21:02:35.420Z,-38.78
2023-01-22T21:05:05.233Z,-38.79
2023-01-22T21:07:34.161Z,-38.86
2023-01-22T21:10:03.372Z,-38.77
2023-01-22T21:12:32.538Z,-38.79
2023-01-22T21:15:01.463Z,-38.84
2023-01-22T21:17:32.204Z,-38.79
2023-01-22T21:20:01.235Z,-38.75
2023-01-22T21:22:32.380Z,-38.72
2023-01-22T21:25:01.307Z,-38.73
2023-01-22T21:27:31.648Z,-38.65
2023-01-22T21:30:00.492Z,-38.61
2023-01-22T21:32:31.250Z,-38.62
2023-01-22T21:35:01.986Z,-38.58
2023-01-22T21:37:32.051Z,-38.61
2023-01-22T21:40:00.883Z,-38.65
2023-01-22T21:42:49.953Z,-38.61
2023-01-22T21:45:37.371Z,-38.54
2023-01-22T21:48:06.611Z,-38.66
2023-01-22T21:50:39.374Z,-38.67
2023-01-22T21:53:10.136Z,-38.67
2023-01-22T21:55:39.177Z,-38.68
2023-01-22T21:58:09.000Z,-38.82
2023-01-22T22:00:38.373Z,-38.77
2023-01-22T22:03:07.846Z,-38.85
2023-01-22T22:05:36.673Z,-38.83
2023-01-22T22:08:05.903Z,-38.92
2023-01-22T22:10:34.904Z,-39.10
2023-01-22T22:13:04.474Z,-39.02
2023-01-22T22:15:34.398Z,-39.01
2023-01-22T22:18:03.220Z,-38.97
2023-01-22T22:20:34.356Z,-39.06
2023-01-22T22:23:03.295Z,-39.00
2023-01-22T22:25:33.383Z,-38.96
2023-01-22T22:28:02.318Z,-38.98
2023-01-22T22:30:31.073Z,-38.96
2023-01-22T22:33:00.163Z,-38.99
2023-01-22T22:35:29.143Z,-39.12
2023-01-22T22:37:58.546Z,-39.05
2023-01-22T22:40:27.461Z,-39.10
2023-01-22T22:42:56.536Z,-38.98
2023-01-22T22:45:25.620Z,-39.13
2023-01-22T22:47:54.460Z,-38.98
2023-01-22T22:50:23.434Z,-38.97
2023-01-22T22:52:52.415Z,-38.83
2023-01-22T22:55:21.231Z,-38.79
2023-01-22T22:57:50.336Z,-38.86
2023-01-22T23:00:20.781Z,-39.01
2023-01-22T23:02:50.943Z,-38.87
2023-01-22T23:05:20.081Z,-38.89
2023-01-22T23:07:49.014Z,-38.90
2023-01-22T23:10:30.004Z,-38.91
2023-01-22T23:13:01.399Z,-38.94
2023-01-22T23:15:31.670Z,-39.02
2023-01-22T23:18:01.402Z,-39.05
2023-01-22T23:20:30.360Z,-39.06
2023-01-22T23:22:59.882Z,-39.03
2023-01-22T23:25:28.841Z,-39.05
2023-01-22T23:27:57.810Z,-39.10
2023-01-22T23:30:27.796Z,-39.06
2023-01-22T23:32:56.651Z,-39.18
2023-01-22T23:35:25.722Z,-39.10
2023-01-22T23:37:54.484Z,-39.01
2023-01-22T23:40:23.999Z,-39.00
2023-01-22T23:42:52.900Z,-38.93
2023-01-22T23:45:21.740Z,-38.93
2023-01-22T23:47:52.389Z,-39.02
2023-01-22T23:50:21.572Z,-39.10
2023-01-22T23:52:50.585Z,-39.12
2023-01-22T23:55:19.569Z,-39.09
2023-01-22T23:57:48.721Z,-39.12
